sensor_id;sensor_type;location;lat;lon;timestamp;pressure;altitude;pressure_sealevel;temperature;humidity
15634;BME280;14654;48.898;8.308;2022-11-28T00:00:22;100171.59;;;4.46;100.00
15634;BME280;14654;48.898;8.308;2022-11-28T00:02:48;100163.91;;;4.44;100.00
15634;BME280;14654;48.898;8.308;2022-11-28T00:05:13;100163.84;;;4.41;100.00
15634;BME280;14654;48.898;8.308;2022-11-28T00:07:38;100154.44;;;4.40;100.00
15634;BME280;14654;48.898;8.308;2022-11-28T00:10:04;100162.13;;;4.40;100.00
15634;BME280;14654;48.898;8.308;2022-11-28T00:12:32;100158.69;;;4.39;100.00
15634;BME280;14654;48.898;8.308;2022-11-28T00:14:57;100154.44;;;4.38;100.00
15634;BME280;14654;48.898;8.308;2022-11-28T00:17:23;100155.28;;;4.39;100.00
15634;BME280;14654;48.898;8.308;2022-11-28T00:19:48;100151.00;;;4.39;100.00
15634;BME280;14654;48.898;8.308;2022-11-28T00:22:13;100154.44;;;4.40;100.00
15634;BME280;14654;48.898;8.308;2022-11-28T00:24:39;100154.44;;;4.38;100.00
15634;BME280;14654;48.898;8.308;2022-11-28T00:27:04;100155.22;;;4.36;100.00
15634;BME280;14654;48.898;8.308;2022-11-28T00:29:29;100160.34;;;4.36;100.00
15634;BME280;14654;48.898;8.308;2022-11-28T00:31:55;100158.63;;;4.35;100.00
15634;BME280;14654;48.898;8.308;2022-11-28T00:34:20;100143.25;;;4.33;100.00
15634;BME280;14654;48.898;8.308;2022-11-28T00:36:46;100142.38;;;4.33;100.00
15634;BME280;14654;48.898;8.308;2022-11-28T00:39:13;100138.97;;;4.34;100.00
15634;BME280;14654;48.898;8.308;2022-11-28T00:41:39;100138.13;;;4.35;100.00
15634;BME280;14654;48.898;8.308;2022-11-28T00:44:05;100141.56;;;4.35;100.00
15634;BME280;14654;48.898;8.308;2022-11-28T00:46:30;100134.72;;;4.36;100.00
15634;BME280;14654;48.898;8.308;2022-11-28T00:48:56;100136.44;;;4.35;100.00
15634;BME280;14654;48.898;8.308;2022-11-28T00:51:24;100128.81;;;4.38;100.00
15634;BME280;14654;48.898;8.308;2022-11-28T00:53:51;100125.38;;;4.38;100.00
15634;BME280;14654;48.898;8.308;2022-11-28T00:56:20;100116.84;;;4.40;100.00
15634;BME280;14654;48.898;8.308;2022-11-28T00:58:46;100119.41;;;4.40;100.00
15634;BME280;14654;48.898;8.308;2022-11-28T01:01:35;100122.84;;;4.41;100.00
15634;BME280;14654;48.898;8.308;2022-11-28T01:04:03;100115.19;;;4.42;100.00
15634;BME280;14654;48.898;8.308;2022-11-28T01:06:46;100117.78;;;4.44;100.00
15634;BME280;14654;48.898;8.308;2022-11-28T01:09:17;100111.81;;;4.45;100.00
15634;BME280;14654;48.898;8.308;2022-11-28T01:11:44;100113.56;;;4.48;100.00
15634;BME280;14654;48.898;8.308;2022-11-28T01:14:11;100117.84;;;4.49;100.00
15634;BME280;14654;48.898;8.308;2022-11-28T01:16:37;100128.09;;;4.50;100.00
15634;BME280;14654;48.898;8.308;2022-11-28T01:19:03;100137.50;;;4.51;100.00
15634;BME280;14654;48.898;8.308;2022-11-28T01:21:29;100139.22;;;4.52;100.00
15634;BME280;14654;48.898;8.308;2022-11-28T01:23:54;100124.72;;;4.53;100.00
15634;BME280;14654;48.898;8.308;2022-11-28T01:26:23;100132.41;;;4.53;100.00
15634;BME280;14654;48.898;8.308;2022-11-28T01:28:49;100122.16;;;4.53;100.00
15634;BME280;14654;48.898;8.308;2022-11-28T01:31:18;100117.88;;;4.53;100.00
15634;BME280;14654;48.898;8.308;2022-11-28T01:33:44;100116.16;;;4.54;100.00
15634;BME280;14654;48.898;8.308;2022-11-28T01:36:10;100116.16;;;4.54;100.00
15634;BME280;14654;48.898;8.308;2022-11-28T01:38:36;100106.81;;;4.54;100.00
15634;BME280;14654;48.898;8.308;2022-11-28T01:41:02;100094.81;;;4.55;100.00
15634;BME280;14654;48.898;8.308;2022-11-28T01:43:28;100085.47;;;4.55;100.00
15634;BME280;14654;48.898;8.308;2022-11-28T01:45:53;100077.78;;;4.55;100.00
15634;BME280;14654;48.898;8.308;2022-11-28T01:48:29;100076.06;;;4.56;100.00
15634;BME280;14654;48.898;8.308;2022-11-28T01:50:59;100077.78;;;4.57;100.00
15634;BME280;14654;48.898;8.308;2022-11-28T01:53:27;100068.41;;;4.57;100.00
15634;BME280;14654;48.898;8.308;2022-11-28T01:55:58;100068.41;;;4.57;100.00
15634;BME280;14654;48.898;8.308;2022-11-28T01:58:26;100065.00;;;4.58;100.00
15634;BME280;14654;48.898;8.308;2022-11-28T02:00:52;100066.72;;;4.60;100.00
15634;BME280;14654;48.898;8.308;2022-11-28T02:03:22;100060.72;;;4.57;100.00
15634;BME280;14654;48.898;8.308;2022-11-28T02:05:49;100064.13;;;4.56;100.00
15634;BME280;14654;48.898;8.308;2022-11-28T02:08:16;100062.38;;;4.55;100.00
15634;BME280;14654;48.898;8.308;2022-11-28T02:25:09;100061.22;;;4.29;100.00
15634;BME280;14654;48.898;8.308;2022-11-28T02:28:02;100052.59;;;4.23;100.00
15634;BME280;14654;48.898;8.308;2022-11-28T02:33:32;100055.94;;;4.18;100.00
15634;BME280;14654;48.898;8.308;2022-11-28T02:43:44;100027.72;;;4.13;100.00
15634;BME280;14654;48.898;8.308;2022-11-28T02:49:05;100017.47;;;4.15;100.00
15634;BME280;14654;48.898;8.308;2022-11-28T02:51:48;100014.06;;;4.14;100.00
15634;BME280;14654;48.898;8.308;2022-11-28T02:54:17;100000.38;;;4.12;100.00
15634;BME280;14654;48.898;8.308;2022-11-28T02:56:49;99994.38;;;4.11;100.00
15634;BME280;14654;48.898;8.308;2022-11-28T03:01:57;99997.78;;;4.09;100.00
15634;BME280;14654;48.898;8.308;2022-11-28T03:04:49;99996.03;;;4.08;100.00
15634;BME280;14654;48.898;8.308;2022-11-28T03:15:08;100019.94;;;4.05;100.00
15634;BME280;14654;48.898;8.308;2022-11-28T03:18:05;100021.66;;;4.06;100.00
15634;BME280;14654;48.898;8.308;2022-11-28T03:23:31;100032.78;;;4.11;100.00
15634;BME280;14654;48.898;8.308;2022-11-28T03:26:17;100037.06;;;4.12;100.00
15634;BME280;14654;48.898;8.308;2022-11-28T03:29:08;100049.09;;;4.15;100.00
15634;BME280;14654;48.898;8.308;2022-11-28T03:31:40;100038.84;;;4.17;100.00
15634;BME280;14654;48.898;8.308;2022-11-28T03:34:09;100032.00;;;4.17;100.00
15634;BME280;14654;48.898;8.308;2022-11-28T03:36:53;100028.63;;;4.18;100.00
15634;BME280;14654;48.898;8.308;2022-11-28T03:39:23;100022.63;;;4.18;100.00
15634;BME280;14654;48.898;8.308;2022-11-28T03:44:37;100042.34;;;4.25;100.00
15634;BME280;14654;48.898;8.308;2022-11-28T03:47:04;100027.91;;;4.30;100.00
15634;BME280;14654;48.898;8.308;2022-11-28T03:49:38;100021.13;;;4.34;100.00
15634;BME280;14654;48.898;8.308;2022-11-28T03:52:07;100016.91;;;4.37;100.00
15634;BME280;14654;48.898;8.308;2022-11-28T03:54:53;100010.97;;;4.40;100.00
15634;BME280;14654;48.898;8.308;2022-11-28T03:59:50;100017.81;;;4.42;100.00
15634;BME280;14654;48.898;8.308;2022-11-28T04:07:38;100011.81;;;4.40;100.00
15634;BME280;14654;48.898;8.308;2022-11-28T04:15:29;100019.38;;;4.31;100.00
15634;BME280;14654;48.898;8.308;2022-11-28T04:20:42;100015.91;;;4.24;100.00
15634;BME280;14654;48.898;8.308;2022-11-28T04:23:12;100017.56;;;4.22;100.00
15634;BME280;14654;48.898;8.308;2022-11-28T04:25:43;100016.69;;;4.20;100.00
15634;BME280;14654;48.898;8.308;2022-11-28T04:28:13;100016.69;;;4.19;100.00
15634;BME280;14654;48.898;8.308;2022-11-28T04:30:42;100008.97;;;4.17;100.00
15634;BME280;14654;48.898;8.308;2022-11-28T04:33:12;100007.22;;;4.16;100.00
15634;BME280;14654;48.898;8.308;2022-11-28T04:35:43;100009.78;;;4.13;100.00
15634;BME280;14654;48.898;8.308;2022-11-28T04:38:10;100011.41;;;4.08;100.00
15634;BME280;14654;48.898;8.308;2022-11-28T04:40:42;100007.97;;;4.04;100.00
15634;BME280;14654;48.898;8.308;2022-11-28T04:43:17;100013.88;;;4.02;100.00
15634;BME280;14654;48.898;8.308;2022-11-28T04:45:48;100004.50;;;4.01;100.00
15634;BME280;14654;48.898;8.308;2022-11-28T04:48:15;100014.75;;;4.01;100.00
15634;BME280;14654;48.898;8.308;2022-11-28T04:50:58;100011.31;;;4.00;100.00
15634;BME280;14654;48.898;8.308;2022-11-28T04:53:34;99999.38;;;4.01;100.00
15634;BME280;14654;48.898;8.308;2022-11-28T04:56:04;99994.25;;;4.01;100.00
15634;BME280;14654;48.898;8.308;2022-11-28T04:58:38;99998.50;;;4.00;100.00
15634;BME280;14654;48.898;8.308;2022-11-28T05:01:06;99998.50;;;3.99;100.00
15634;BME280;14654;48.898;8.308;2022-11-28T05:03:34;99997.66;;;4.00;100.00
15634;BME280;14654;48.898;8.308;2022-11-28T05:06:00;99993.34;;;3.97;100.00
15634;BME280;14654;48.898;8.308;2022-11-28T05:08:27;99980.50;;;3.94;100.00
15634;BME280;14654;48.898;8.308;2022-11-28T05:10:52;99990.72;;;3.91;100.00
15634;BME280;14654;48.898;8.308;2022-11-28T05:13:18;99994.13;;;3.90;100.00
15634;BME280;14654;48.898;8.308;2022-11-28T05:15:43;99992.38;;;3.89;100.00
15634;BME280;14654;48.898;8.308;2022-11-28T05:18:08;99995.75;;;3.86;100.00
15634;BME280;14654;48.898;8.308;2022-11-28T05:20:36;99982.94;;;3.86;100.00
15634;BME280;14654;48.898;8.308;2022-11-28T05:23:02;99988.06;;;3.85;100.00
15634;BME280;14654;48.898;8.308;2022-11-28T05:25:27;99984.63;;;3.83;100.00
15634;BME280;14654;48.898;8.308;2022-11-28T05:27:53;99981.22;;;3.84;100.00
15634;BME280;14654;48.898;8.308;2022-11-28T05:30:18;99964.19;;;3.84;100.00
15634;BME280;14654;48.898;8.308;2022-11-28T05:32:43;99959.06;;;3.86;100.00
15634;BME280;14654;48.898;8.308;2022-11-28T05:35:09;99965.91;;;3.87;100.00
15634;BME280;14654;48.898;8.308;2022-11-28T05:37:34;99961.63;;;3.87;100.00
15634;BME280;14654;48.898;8.308;2022-11-28T05:39:59;99957.38;;;3.88;100.00
15634;BME280;14654;48.898;8.308;2022-11-28T05:42:25;99953.09;;;3.87;100.00
15634;BME280;14654;48.898;8.308;2022-11-28T05:44:52;99952.22;;;3.86;100.00
15634;BME280;14654;48.898;8.308;2022-11-28T05:47:18;99948.00;;;3.87;100.00
15634;BME280;14654;48.898;8.308;2022-11-28T05:49:45;99953.94;;;3.87;100.00
15634;BME280;14654;48.898;8.308;2022-11-28T05:52:11;99946.28;;;3.87;100.00
15634;BME280;14654;48.898;8.308;2022-11-28T05:54:36;99959.06;;;3.87;100.00
15634;BME280;14654;48.898;8.308;2022-11-28T05:57:01;99953.09;;;3.85;100.00
15634;BME280;14654;48.898;8.308;2022-11-28T05:59:27;99961.63;;;3.84;100.00
15634;BME280;14654;48.898;8.308;2022-11-28T06:01:52;99955.63;;;3.82;100.00
15634;BME280;14654;48.898;8.308;2022-11-28T06:04:18;99950.44;;;3.77;100.00
15634;BME280;14654;48.898;8.308;2022-11-28T06:06:43;99947.88;;;3.77;100.00
15634;BME280;14654;48.898;8.308;2022-11-28T06:09:09;99955.53;;;3.76;100.00
15634;BME280;14654;48.898;8.308;2022-11-28T06:11:35;99958.88;;;3.72;100.00
15634;BME280;14654;48.898;8.308;2022-11-28T06:14:01;99969.09;;;3.72;100.00
15634;BME280;14654;48.898;8.308;2022-11-28T06:16:28;99970.81;;;3.73;100.00
15634;BME280;14654;48.898;8.308;2022-11-28T06:18:56;99968.25;;;3.73;100.00
15634;BME280;14654;48.898;8.308;2022-11-28T06:21:22;99969.16;;;3.73;100.00
15634;BME280;14654;48.898;8.308;2022-11-28T06:23:48;99977.66;;;3.74;100.00
15634;BME280;14654;48.898;8.308;2022-11-28T06:26:17;99982.78;;;3.74;100.00
15634;BME280;14654;48.898;8.308;2022-11-28T06:28:43;99982.78;;;3.74;100.00
15634;BME280;14654;48.898;8.308;2022-11-28T06:31:14;99986.22;;;3.74;100.00
15634;BME280;14654;48.898;8.308;2022-11-28T06:33:40;99993.91;;;3.76;100.00
15634;BME280;14654;48.898;8.308;2022-11-28T06:36:07;99993.94;;;3.77;100.00
15634;BME280;14654;48.898;8.308;2022-11-28T06:38:33;99988.84;;;3.77;100.00
15634;BME280;14654;48.898;8.308;2022-11-28T06:41:00;99991.38;;;3.77;100.00
15634;BME280;14654;48.898;8.308;2022-11-28T06:43:26;99992.25;;;3.78;100.00
15634;BME280;14654;48.898;8.308;2022-11-28T06:45:52;99996.50;;;3.77;100.00
15634;BME280;14654;48.898;8.308;2022-11-28T06:48:18;99999.06;;;3.77;100.00
15634;BME280;14654;48.898;8.308;2022-11-28T06:50:43;99995.63;;;3.78;100.00
15634;BME280;14654;48.898;8.308;2022-11-28T06:53:09;99999.94;;;3.79;100.00
15634;BME280;14654;48.898;8.308;2022-11-28T06:55:34;99993.09;;;3.78;100.00
15634;BME280;14654;48.898;8.308;2022-11-28T06:57:59;99992.25;;;3.79;100.00
15634;BME280;14654;48.898;8.308;2022-11-28T07:00:25;99993.13;;;3.80;100.00
15634;BME280;14654;48.898;8.308;2022-11-28T07:02:50;99998.25;;;3.81;100.00
15634;BME280;14654;48.898;8.308;2022-11-28T07:05:16;100011.09;;;3.85;100.00
15634;BME280;14654;48.898;8.308;2022-11-28T07:07:44;100004.31;;;3.87;100.00
15634;BME280;14654;48.898;8.308;2022-11-28T07:10:10;100004.31;;;3.88;100.00
15634;BME280;14654;48.898;8.308;2022-11-28T07:12:36;100006.94;;;3.91;100.00
15634;BME280;14654;48.898;8.308;2022-11-28T07:15:01;100005.25;;;3.93;100.00
15634;BME280;14654;48.898;8.308;2022-11-28T07:17:27;100006.97;;;3.94;100.00
15634;BME280;14654;48.898;8.308;2022-11-28T07:19:52;100012.97;;;3.96;100.00
15634;BME280;14654;48.898;8.308;2022-11-28T07:22:17;100018.09;;;3.96;100.00
15634;BME280;14654;48.898;8.308;2022-11-28T07:24:42;100023.22;;;3.98;100.00
15634;BME280;14654;48.898;8.308;2022-11-28T07:27:08;100016.44;;;4.00;100.00
15634;BME280;14654;48.898;8.308;2022-11-28T07:29:33;100012.19;;;4.01;100.00
15634;BME280;14654;48.898;8.308;2022-11-28T07:32:02;100023.31;;;4.04;100.00
15634;BME280;14654;48.898;8.308;2022-11-28T07:34:29;100018.25;;;4.07;100.00
15634;BME280;14654;48.898;8.308;2022-11-28T07:36:55;100007.19;;;4.10;100.00
15634;BME280;14654;48.898;8.308;2022-11-28T07:39:20;100011.50;;;4.16;100.00
15634;BME280;14654;48.898;8.308;2022-11-28T07:41:45;100007.28;;;4.19;100.00
15634;BME280;14654;48.898;8.308;2022-11-28T07:44:11;100008.22;;;4.24;100.00
15634;BME280;14654;48.898;8.308;2022-11-28T07:46:37;100008.25;;;4.27;100.00
15634;BME280;14654;48.898;8.308;2022-11-28T07:49:02;100015.09;;;4.32;100.00
15634;BME280;14654;48.898;8.308;2022-11-28T07:51:32;100011.75;;;4.36;100.00
15634;BME280;14654;48.898;8.308;2022-11-28T07:53:58;100021.22;;;4.40;100.00
15634;BME280;14654;48.898;8.308;2022-11-28T07:56:27;100021.25;;;4.43;100.00
15634;BME280;14654;48.898;8.308;2022-11-28T07:58:53;100020.47;;;4.49;100.00
15634;BME280;14654;48.898;8.308;2022-11-28T08:01:32;100021.34;;;4.52;100.00
15634;BME280;14654;48.898;8.308;2022-11-28T08:04:00;100023.91;;;4.54;100.00
15634;BME280;14654;48.898;8.308;2022-11-28T08:06:28;100022.31;;;4.61;100.00
15634;BME280;14654;48.898;8.308;2022-11-28T08:08:55;100025.75;;;4.64;100.00
15634;BME280;14654;48.898;8.308;2022-11-28T08:11:22;100028.38;;;4.67;100.00
15634;BME280;14654;48.898;8.308;2022-11-28T08:13:48;100023.28;;;4.72;100.00
15634;BME280;14654;48.898;8.308;2022-11-28T08:16:18;100026.72;;;4.76;100.00
15634;BME280;14654;48.898;8.308;2022-11-28T08:18:45;100024.19;;;4.80;100.00
15634;BME280;14654;48.898;8.308;2022-11-28T08:21:21;100020.84;;;4.84;100.00
15634;BME280;14654;48.898;8.308;2022-11-28T08:23:48;100008.91;;;4.88;100.00
15634;BME280;14654;48.898;8.308;2022-11-28T08:26:17;100013.22;;;4.92;100.00
15634;BME280;14654;48.898;8.308;2022-11-28T08:28:43;100019.22;;;4.96;100.00
15634;BME280;14654;48.898;8.308;2022-11-28T08:33:37;100026.16;;;5.04;100.00
15634;BME280;14654;48.898;8.308;2022-11-28T08:36:07;100027.06;;;5.10;100.00
15634;BME280;14654;48.898;8.308;2022-11-28T08:38:33;100021.09;;;5.12;100.00
15634;BME280;14654;48.898;8.308;2022-11-28T08:41:03;100011.75;;;5.17;100.00
15634;BME280;14654;48.898;8.308;2022-11-28T08:43:30;100010.91;;;5.20;100.00
15634;BME280;14654;48.898;8.308;2022-11-28T08:45:55;100001.50;;;5.24;100.00
15634;BME280;14654;48.898;8.308;2022-11-28T08:48:21;100001.53;;;5.25;100.00
15634;BME280;14654;48.898;8.308;2022-11-28T08:50:47;99999.00;;;5.30;100.00
15634;BME280;14654;48.898;8.308;2022-11-28T08:53:13;99993.06;;;5.34;100.00
15634;BME280;14654;48.898;8.308;2022-11-28T08:55:42;99999.06;;;5.38;100.00
15634;BME280;14654;48.898;8.308;2022-11-28T08:58:09;99996.53;;;5.42;100.00
15634;BME280;14654;48.898;8.308;2022-11-28T09:00:35;100007.69;;;5.47;100.00
15634;BME280;14654;48.898;8.308;2022-11-28T09:03:00;100007.72;;;5.54;100.00
15634;BME280;14654;48.898;8.308;2022-11-28T09:05:27;100014.63;;;5.59;100.00
15634;BME280;14654;48.898;8.308;2022-11-28T09:07:53;100011.25;;;5.67;100.00
15634;BME280;14654;48.898;8.308;2022-11-28T09:10:19;100017.28;;;5.72;100.00
15634;BME280;14654;48.898;8.308;2022-11-28T09:12:44;100019.03;;;5.77;100.00
15634;BME280;14654;48.898;8.308;2022-11-28T09:15:09;100019.06;;;5.80;100.00
15634;BME280;14654;48.898;8.308;2022-11-28T09:17:35;100012.19;;;5.83;100.00
15634;BME280;14654;48.898;8.308;2022-11-28T09:20:00;100020.78;;;5.85;100.00
15634;BME280;14654;48.898;8.308;2022-11-28T09:22:27;100028.50;;;5.88;100.00
15634;BME280;14654;48.898;8.308;2022-11-28T09:24:52;100025.94;;;5.92;100.00
15634;BME280;14654;48.898;8.308;2022-11-28T09:27:18;100017.44;;;5.95;100.00
15634;BME280;14654;48.898;8.308;2022-11-28T09:29:43;100029.41;;;5.99;100.00
15634;BME280;14654;48.898;8.308;2022-11-28T09:32:08;100028.66;;;6.05;100.00
15634;BME280;14654;48.898;8.308;2022-11-28T09:34:34;100032.94;;;6.12;100.00
15634;BME280;14654;48.898;8.308;2022-11-28T09:36:59;100034.72;;;6.19;100.00
15634;BME280;14654;48.898;8.308;2022-11-28T09:39:24;100043.31;;;6.28;100.00
15634;BME280;14654;48.898;8.308;2022-11-28T09:42:11;100044.19;;;6.36;100.00
15634;BME280;14654;48.898;8.308;2022-11-28T09:44:47;100044.22;;;6.42;100.00
15634;BME280;14654;48.898;8.308;2022-11-28T09:47:22;100033.13;;;6.52;100.00
15634;BME280;14654;48.898;8.308;2022-11-28T09:49:51;100034.84;;;6.55;100.00
15634;BME280;14654;48.898;8.308;2022-11-28T09:52:42;100024.56;;;6.55;100.00
15634;BME280;14654;48.898;8.308;2022-11-28T09:58:00;100023.75;;;6.64;100.00
15634;BME280;14654;48.898;8.308;2022-11-28T10:00:36;100021.19;;;6.73;100.00
15634;BME280;14654;48.898;8.308;2022-11-28T10:03:27;100027.19;;;6.80;100.00
15634;BME280;14654;48.898;8.308;2022-11-28T10:09:11;100023.81;;;6.99;100.00
15634;BME280;14654;48.898;8.308;2022-11-28T10:17:33;100015.25;;;7.24;100.00
15634;BME280;14654;48.898;8.308;2022-11-28T10:22:45;100013.53;;;7.40;100.00
15634;BME280;14654;48.898;8.308;2022-11-28T10:25:21;100016.09;;;7.44;100.00
15634;BME280;14654;48.898;8.308;2022-11-28T10:27:49;100008.38;;;7.49;100.00
15634;BME280;14654;48.898;8.308;2022-11-28T10:30:21;100006.66;;;7.57;100.00
15634;BME280;14654;48.898;8.308;2022-11-28T10:33:06;99993.78;;;7.62;100.00
15634;BME280;14654;48.898;8.308;2022-11-28T10:38:14;99993.75;;;7.74;100.00
15634;BME280;14654;48.898;8.308;2022-11-28T10:40:45;99986.00;;;7.82;100.00
15634;BME280;14654;48.898;8.308;2022-11-28T11:02:25;99970.31;;;8.46;100.00
15634;BME280;14654;48.898;8.308;2022-11-28T11:04:52;99975.47;;;8.53;100.00
15634;BME280;14654;48.898;8.308;2022-11-28T11:07:29;99972.81;;;8.63;100.00
15634;BME280;14654;48.898;8.308;2022-11-28T11:10:16;99967.63;;;8.67;100.00
15634;BME280;14654;48.898;8.308;2022-11-28T11:12:44;99969.31;;;8.70;100.00
15634;BME280;14654;48.898;8.308;2022-11-28T11:15:35;99971.00;;;8.74;100.00
15634;BME280;14654;48.898;8.308;2022-11-28T11:18:20;99965.00;;;8.77;100.00
15634;BME280;14654;48.898;8.308;2022-11-28T11:20:45;99958.06;;;8.79;100.00
15634;BME280;14654;48.898;8.308;2022-11-28T11:23:20;99952.94;;;8.77;100.00
15634;BME280;14654;48.898;8.308;2022-11-28T11:25:50;99959.81;;;8.78;100.00
15634;BME280;14654;48.898;8.308;2022-11-28T11:31:02;99949.47;;;8.81;100.00
15634;BME280;14654;48.898;8.308;2022-11-28T11:33:32;99955.44;;;8.87;100.00
15634;BME280;14654;48.898;8.308;2022-11-28T11:35:59;99949.38;;;8.94;100.00
15634;BME280;14654;48.898;8.308;2022-11-28T11:38:28;99941.56;;;9.03;100.00
15634;BME280;14654;48.898;8.308;2022-11-28T11:40:54;99940.63;;;9.13;100.00
15634;BME280;14654;48.898;8.308;2022-11-28T11:43:30;99940.50;;;9.26;100.00
15634;BME280;14654;48.898;8.308;2022-11-28T11:46:12;99937.00;;;9.35;100.00
15634;BME280;14654;48.898;8.308;2022-11-28T11:48:45;99930.91;;;9.40;100.00
15634;BME280;14654;48.898;8.308;2022-11-28T11:51:29;99926.53;;;9.47;100.00
15634;BME280;14654;48.898;8.308;2022-11-28T11:54:14;99919.53;;;9.55;100.00
15634;BME280;14654;48.898;8.308;2022-11-28T11:56:43;99921.19;;;9.64;100.00
15634;BME280;14654;48.898;8.308;2022-11-28T11:59:41;99924.50;;;9.75;100.00
15634;BME280;14654;48.898;8.308;2022-11-28T12:02:35;99914.03;;;9.86;100.00
15634;BME280;14654;48.898;8.308;2022-11-28T12:05:04;99913.13;;;9.90;100.00
15634;BME280;14654;48.898;8.308;2022-11-28T12:07:57;99913.94;;;9.94;100.00
15634;BME280;14654;48.898;8.308;2022-11-28T12:10:29;99909.63;;;9.93;100.00
15634;BME280;14654;48.898;8.308;2022-11-28T12:12:54;99904.50;;;9.91;100.00
15634;BME280;14654;48.898;8.308;2022-11-28T12:23:20;99895.06;;;9.87;100.00
15634;BME280;14654;48.898;8.308;2022-11-28T12:26:00;99889.94;;;9.84;100.00
15634;BME280;14654;48.898;8.308;2022-11-28T12:31:19;99892.59;;;9.76;100.00
15634;BME280;14654;48.898;8.308;2022-11-28T12:36:59;99884.94;;;9.70;100.00
15634;BME280;14654;48.898;8.308;2022-11-28T12:50:36;99871.16;;;9.71;100.00
15634;BME280;14654;48.898;8.308;2022-11-28T12:58:50;99870.22;;;9.77;100.00
15634;BME280;14654;48.898;8.308;2022-11-28T13:09:33;99873.63;;;9.79;100.00
15634;BME280;14654;48.898;8.308;2022-11-28T13:12:19;99877.94;;;9.79;100.00
15634;BME280;14654;48.898;8.308;2022-11-28T13:14:52;99874.53;;;9.75;100.00
15634;BME280;14654;48.898;8.308;2022-11-28T13:23:08;99872.88;;;9.72;100.00
15634;BME280;14654;48.898;8.308;2022-11-28T13:25:51;99867.72;;;9.69;100.00
15634;BME280;14654;48.898;8.308;2022-11-28T13:33:49;99867.88;;;9.55;100.00
15634;BME280;14654;48.898;8.308;2022-11-28T13:36:26;99866.22;;;9.50;100.00
15634;BME280;14654;48.898;8.308;2022-11-28T13:44:09;99883.63;;;9.32;100.00
15634;BME280;14654;48.898;8.308;2022-11-28T13:46:41;99877.69;;;9.27;100.00
15634;BME280;14654;48.898;8.308;2022-11-28T13:49:16;99878.56;;;9.23;100.00
15634;BME280;14654;48.898;8.308;2022-11-28T13:51:42;99884.66;;;9.17;100.00
15634;BME280;14654;48.898;8.308;2022-11-28T13:56:47;99877.88;;;9.07;100.00
15634;BME280;14654;48.898;8.308;2022-11-28T13:59:27;99877.06;;;9.02;100.00
15634;BME280;14654;48.898;8.308;2022-11-28T14:01:56;99871.88;;;9.00;100.00
15634;BME280;14654;48.898;8.308;2022-11-28T14:04:24;99870.16;;;9.00;100.00
15634;BME280;14654;48.898;8.308;2022-11-28T14:06:55;99869.31;;;9.02;100.00
15634;BME280;14654;48.898;8.308;2022-11-28T14:12:36;99875.38;;;8.99;100.00
15634;BME280;14654;48.898;8.308;2022-11-28T14:15:26;99875.41;;;8.93;100.00
15634;BME280;14654;48.898;8.308;2022-11-28T14:23:28;99867.78;;;8.80;100.00
15634;BME280;14654;48.898;8.308;2022-11-28T14:25:57;99873.81;;;8.76;100.00
15634;BME280;14654;48.898;8.308;2022-11-28T14:28:34;99873.00;;;8.71;100.00
15634;BME280;14654;48.898;8.308;2022-11-28T14:31:17;99869.59;;;8.66;100.00
15634;BME280;14654;48.898;8.308;2022-11-28T14:33:46;99876.50;;;8.64;100.00
15634;BME280;14654;48.898;8.308;2022-11-28T14:49:47;99882.63;;;8.44;100.00
15634;BME280;14654;48.898;8.308;2022-11-28T14:52:21;99884.34;;;8.44;100.00
15634;BME280;14654;48.898;8.308;2022-11-28T14:54:48;99881.78;;;8.41;100.00
15634;BME280;14654;48.898;8.308;2022-11-28T14:57:27;99885.22;;;8.39;100.00
15634;BME280;14654;48.898;8.308;2022-11-28T14:59:56;99885.25;;;8.36;100.00
15634;BME280;14654;48.898;8.308;2022-11-28T15:02:31;99886.13;;;8.34;100.00
15634;BME280;14654;48.898;8.308;2022-11-28T15:05:23;99893.00;;;8.33;100.00
15634;BME280;14654;48.898;8.308;2022-11-28T15:08:45;99889.59;;;8.31;100.00
15634;BME280;14654;48.898;8.308;2022-11-28T15:14:21;99889.63;;;8.25;100.00
15634;BME280;14654;48.898;8.308;2022-11-28T15:16:49;99887.06;;;8.20;100.00
15634;BME280;14654;48.898;8.308;2022-11-28T15:19:26;99887.09;;;8.16;100.00
15634;BME280;14654;48.898;8.308;2022-11-28T15:21:54;99887.97;;;8.12;100.00
15634;BME280;14654;48.898;8.308;2022-11-28T15:24:32;99888.84;;;8.07;100.00
15634;BME280;14654;48.898;8.308;2022-11-28T15:27:17;99887.16;;;8.03;100.00
15634;BME280;14654;48.898;8.308;2022-11-28T15:29:57;99893.19;;;7.99;100.00
15634;BME280;14654;48.898;8.308;2022-11-28T15:32:24;99891.50;;;7.93;100.00
15634;BME280;14654;48.898;8.308;2022-11-28T15:35:01;99884.63;;;7.88;100.00
15634;BME280;14654;48.898;8.308;2022-11-28T15:37:32;99885.53;;;7.85;100.00
15634;BME280;14654;48.898;8.308;2022-11-28T15:40:00;99883.81;;;7.83;100.00
15634;BME280;14654;48.898;8.308;2022-11-28T15:42:34;99894.13;;;7.81;100.00
15634;BME280;14654;48.898;8.308;2022-11-28T15:45:07;99890.69;;;7.79;100.00
15634;BME280;14654;48.898;8.308;2022-11-28T15:47:34;99892.44;;;7.77;100.00
15634;BME280;14654;48.898;8.308;2022-11-28T15:50:21;99894.13;;;7.76;100.00
15634;BME280;14654;48.898;8.308;2022-11-28T15:52:59;99893.28;;;7.76;100.00
15634;BME280;14654;48.898;8.308;2022-11-28T15:55:27;99891.59;;;7.75;100.00
15634;BME280;14654;48.898;8.308;2022-11-28T15:58:20;99890.72;;;7.73;100.00
15634;BME280;14654;48.898;8.308;2022-11-28T16:00:56;99892.47;;;7.69;100.00
15634;BME280;14654;48.898;8.308;2022-11-28T16:03:26;99892.44;;;7.68;100.00
15634;BME280;14654;48.898;8.308;2022-11-28T16:05:54;99892.44;;;7.68;100.00
15634;BME280;14654;48.898;8.308;2022-11-28T16:08:34;99892.44;;;7.68;100.00
15634;BME280;14654;48.898;8.308;2022-11-28T16:11:02;99902.75;;;7.68;100.00
15634;BME280;14654;48.898;8.308;2022-11-28T16:13:30;99902.78;;;7.66;100.00
15634;BME280;14654;48.898;8.308;2022-11-28T16:15:57;99901.03;;;7.67;100.00